Terminal Aerodrome Forecast
Issued by NWS

Home | Current Version | Previous Version | Text Only | Print | Product List | Glossary On
Versions: 1 2 3 4 5 6 7 8 9 10 11 12 13 14 15 16 17 18 19
363
FTUS44 KMAF 191125
TAFFST
TAF
KFST 191125Z 1912/2012 14010KT P6SM FEW100 BKN200
      TEMPO 1921/2001 VRB15G25KT -TSRA BKN080CB=

USA.gov is the U.S. government's official web portal to all federal, state and local government web resources and services.